Aviation Digital Data Service (ADDS)

Output produced by METARs form (0942 UTC 31 March 2015)
found at http://www.aviationweather.gov/adds/metars/
 
KEWR 310842Z 3109/0112 26007KT P6SM BKN100 
     FM311500 26007KT P6SM SCT040 SCT150 
     FM311800 24006KT P6SM SCT040 BKN100 
     FM312000 VRB04KT 5SM -RASN BR BKN015 OVC050 
     FM010000 02008KT 2SM -RASN BR OVC009 
     FM010300 34009KT P6SM SCT010 OVC040 
     FM010600 33011KT P6SM BKN250